Werribee, Victoria

12:21 PM EST on August 31, 2014 (GMT +1000)
Werribee Weather | Change Station
CLOSE
Current Station
Personal Weather Station
Location: Werribee, Victoria
Elevation: 66 ft
Nearby Weather Stations

Elev 66 ft 37.91 °S, 144.67 °E | Updated 5 seconds ago

Clear
Clear
73.8 °F
Feels Like 77 °F
N
11.0
Wind Variable Wind from NW
Gusts 13.0 mph

Today
High -- | Low -- °F
--% Chance of Precip.
Yesterday
High -- | Low -- °F
Precip. -- in
6:45 AM 5:58 PM
Waxing Crescent, 26% visible
Pressure 30.01 in
Visibility -9999.0 miles
Clouds
Heat Index 77 °F
Dew Point 45 °F
Humidity 36%
Rainfall 0.00 in
Snow Depth Not available.
UV Not available.
Pollen Not available.
Air Quality Not available.
Flu Activity Not available.
METAR YMML 310200Z 36024KT CAVOK 20/04 Q1016 FM0200 MOD TURB BLW 5000FT

More Conditions Fewer Conditions

Pressure 30.01 in
Visibility -9999.0 miles
Clouds
Heat Index 77 °F
Dew Point 45 °F
Humidity 36%
Rainfall 0.00 in
Snow Depth Not available.
UV Not available.
Pollen Not available.
Air Quality Not available.
Flu Activity Not available.
METAR YMML 310200Z 36024KT CAVOK 20/04 Q1016 FM0200 MOD TURB BLW 5000FT

More Conditions Fewer Conditions

10-Day Weather Forecast

Almanac

Astronomy

Aug. 31, 2014 Rise Set
Actual Time 6:45 AM EST 5:58 PM EST
Civil Twilight 6:18 AM EST 6:25 PM EST
Nautical Twilight 5:48 AM EST 6:55 PM EST
Astronomical Twilight 5:17 AM EST 7:26 PM EST
Moon 9:29 AM EST 11:20 PM EST
Length of Visible Light 12h 06m
Length of Day
11h 13m
Tomorrow will be 2m 18s longer.
Waxing Crescent, 26% of the Moon is Illuminated
Aug 30
Waxing Crescent
Sep 2
First Quarter
Sep 8
Full
Sep 15
Last Quarter
Sep 24
New

Yesterday's Extremes

Country Highs Country Lows

Community

WunderPhotos

Upload Photos

1,748,749 photos uploaded!

Nearby

Snow Depth

Not available.

Earthquake Activity

City Distance Mag. Time & Date
No recent earthquake activity has been reported nearby.
Minimum magnitude displayed is 2.5.

Coastal Water Temperatures

Place Temperature
No Stations Reporting

Nearby Weather Stations